Buffalo, Iowa
Current Conditions -  °F | °C
As of 12:52 PM on Saturday 25 Oct 2014 (Local Time) from KMLI Reporting Station
Clear Clear  
Wind Chill: 70°   Ceiling: Unl
Heat Index: 70°   Visibility: 10mi
Dew Point: 39°   Wind: 8mph
Humidity: 32%   Direction: 350°N
Pressure: 30.02"   Gusts: NA
Location:  41.46°N, 90.72°W
Report Text: KMLI 251752Z 35007KT 10SM CLR 21/04 A3002 RMK AO2 SLP166 T02110039 10211 20106 50001 $
Loading
Personal Weather Stations






























Interactive Weather Map
Tropical Storm Tracking
New forecast layout! Learn more

10-Day Weather Forecast

Advertisements
Track Severe Weather on mobile